sensor_id;sensor_type;location;lat;lon;timestamp;pressure;altitude;pressure_sealevel;temperature;humidity
53550;BME280;67273;52.914;-0.982;2023-04-01T00:00:46;99590.47;;;19.06;49.25
53550;BME280;67273;52.914;-0.982;2023-04-01T00:03:12;99595.09;;;19.06;49.25
53550;BME280;67273;52.914;-0.982;2023-04-01T00:05:37;99604.34;;;19.05;49.27
53550;BME280;67273;52.914;-0.982;2023-04-01T00:08:03;99600.78;;;19.04;49.23
53550;BME280;67273;52.914;-0.982;2023-04-01T00:10:29;99608.16;;;19.04;49.27
53550;BME280;67273;52.914;-0.982;2023-04-01T00:12:55;99606.50;;;19.03;49.24
53550;BME280;67273;52.914;-0.982;2023-04-01T00:15:22;99602.97;;;19.02;49.27
53550;BME280;67273;52.914;-0.982;2023-04-01T00:17:48;99604.88;;;19.02;49.13
53550;BME280;67273;52.914;-0.982;2023-04-01T00:20:15;99610.31;;;19.02;49.23
53550;BME280;67273;52.914;-0.982;2023-04-01T00:22:41;99602.44;;;19.00;49.27
53550;BME280;67273;52.914;-0.982;2023-04-01T00:25:07;99607.88;;;19.00;48.92
53550;BME280;67273;52.914;-0.982;2023-04-01T00:27:33;99611.66;;;18.99;49.31
53550;BME280;67273;52.914;-0.982;2023-04-01T00:29:59;99621.75;;;18.98;49.21
53550;BME280;67273;52.914;-0.982;2023-04-01T00:32:26;99615.50;;;18.98;49.09
53550;BME280;67273;52.914;-0.982;2023-04-01T00:34:52;99618.47;;;18.96;49.07
53550;BME280;67273;52.914;-0.982;2023-04-01T00:37:19;99624.72;;;18.97;49.21
53550;BME280;67273;52.914;-0.982;2023-04-01T00:39:45;99624.19;;;18.95;49.14
53550;BME280;67273;52.914;-0.982;2023-04-01T00:42:11;99621.47;;;18.95;49.16
53550;BME280;67273;52.914;-0.982;2023-04-01T00:44:38;99626.09;;;18.94;49.17
53550;BME280;67273;52.914;-0.982;2023-04-01T00:47:04;99629.63;;;18.95;49.38
53550;BME280;67273;52.914;-0.982;2023-04-01T00:49:34;99629.06;;;18.93;49.08
53550;BME280;67273;52.914;-0.982;2023-04-01T00:52:03;99638.31;;;18.92;49.04
53550;BME280;67273;52.914;-0.982;2023-04-01T00:54:31;99638.31;;;18.92;49.07
53550;BME280;67273;52.914;-0.982;2023-04-01T00:57:00;99643.75;;;18.92;48.98
53550;BME280;67273;52.914;-0.982;2023-04-01T00:59:30;99647.59;;;18.91;49.06
53550;BME280;67273;52.914;-0.982;2023-04-01T01:01:56;99658.47;;;18.91;49.03
53550;BME280;67273;52.914;-0.982;2023-04-01T01:04:24;99658.47;;;18.91;49.01
53550;BME280;67273;52.914;-0.982;2023-04-01T01:06:58;99661.44;;;18.89;48.90
53550;BME280;67273;52.914;-0.982;2023-04-01T01:09:30;99662.25;;;18.90;48.96
53550;BME280;67273;52.914;-0.982;2023-04-01T01:12:07;99669.88;;;18.88;49.03
53550;BME280;67273;52.914;-0.982;2023-04-01T01:14:45;99664.44;;;18.88;48.96
53550;BME280;67273;52.914;-0.982;2023-04-01T01:17:21;99665.53;;;18.87;49.09
53550;BME280;67273;52.914;-0.982;2023-04-01T01:20:12;99674.78;;;18.86;49.00
53550;BME280;67273;52.914;-0.982;2023-04-01T01:22:54;99677.50;;;18.86;49.00
53550;BME280;67273;52.914;-0.982;2023-04-01T01:25:31;99679.41;;;18.85;48.92
53550;BME280;67273;52.914;-0.982;2023-04-01T01:28:05;99681.28;;;18.85;48.92
53550;BME280;67273;52.914;-0.982;2023-04-01T01:30:43;99691.34;;;18.84;49.09
53550;BME280;67273;52.914;-0.982;2023-04-01T01:33:22;99694.34;;;18.83;49.15
53550;BME280;67273;52.914;-0.982;2023-04-01T01:35:54;99691.63;;;18.83;49.06
53550;BME280;67273;52.914;-0.982;2023-04-01T01:38:23;99693.53;;;18.82;48.87
53550;BME280;67273;52.914;-0.982;2023-04-01T01:41:02;99701.91;;;18.80;48.96
53550;BME280;67273;52.914;-0.982;2023-04-01T01:43:33;99701.91;;;18.80;48.89
53550;BME280;67273;52.914;-0.982;2023-04-01T01:46:05;99700.28;;;18.79;48.94
53550;BME280;67273;52.914;-0.982;2023-04-01T01:48:34;99703.84;;;18.80;48.91
53550;BME280;67273;52.914;-0.982;2023-04-01T01:51:03;99704.09;;;18.78;48.94
53550;BME280;67273;52.914;-0.982;2023-04-01T01:53:30;99715.78;;;18.79;48.82
53550;BME280;67273;52.914;-0.982;2023-04-01T01:55:56;99710.59;;;18.77;48.90
53550;BME280;67273;52.914;-0.982;2023-04-01T01:58:25;99717.16;;;18.76;48.81
53550;BME280;67273;52.914;-0.982;2023-04-01T02:00:56;99724.22;;;18.77;48.80
53550;BME280;67273;52.914;-0.982;2023-04-01T02:03:24;99718.22;;;18.75;48.94
53550;BME280;67273;52.914;-0.982;2023-04-01T02:05:53;99731.81;;;18.75;48.91
53550;BME280;67273;52.914;-0.982;2023-04-01T02:08:26;99733.72;;;18.75;48.91
53550;BME280;67273;52.914;-0.982;2023-04-01T02:10:56;99727.47;;;18.74;48.86
53550;BME280;67273;52.914;-0.982;2023-04-01T02:13:30;99740.25;;;18.74;48.88
53550;BME280;67273;52.914;-0.982;2023-04-01T02:16:01;99742.97;;;18.74;48.92
53550;BME280;67273;52.914;-0.982;2023-04-01T02:18:29;99753.03;;;18.73;48.84
53550;BME280;67273;52.914;-0.982;2023-04-01T02:20:57;99754.09;;;18.72;48.93
53550;BME280;67273;52.914;-0.982;2023-04-01T02:23:25;99751.38;;;18.72;48.75
53550;BME280;67273;52.914;-0.982;2023-04-01T02:25:52;99747.03;;;18.71;48.86
53550;BME280;67273;52.914;-0.982;2023-04-01T02:28:19;99762.56;;;18.71;48.90
53550;BME280;67273;52.914;-0.982;2023-04-01T02:30:47;99761.72;;;18.70;48.70
53550;BME280;67273;52.914;-0.982;2023-04-01T02:33:15;99774.50;;;18.70;48.85
53550;BME280;67273;52.914;-0.982;2023-04-01T02:35:41;99776.41;;;18.69;48.91
53550;BME280;67273;52.914;-0.982;2023-04-01T02:38:07;99773.69;;;18.69;48.86
53550;BME280;67273;52.914;-0.982;2023-04-01T02:40:47;99785.66;;;18.68;48.86
53550;BME280;67273;52.914;-0.982;2023-04-01T02:43:13;99784.84;;;18.68;48.81
53550;BME280;67273;52.914;-0.982;2023-04-01T02:45:39;99783.19;;;18.67;48.64
53550;BME280;67273;52.914;-0.982;2023-04-01T02:48:05;99788.63;;;18.67;48.78
53550;BME280;67273;52.914;-0.982;2023-04-01T02:50:31;99793.25;;;18.66;48.70
53550;BME280;67273;52.914;-0.982;2023-04-01T02:52:57;99792.44;;;18.66;48.71
53550;BME280;67273;52.914;-0.982;2023-04-01T02:55:23;99787.00;;;18.66;48.65
53550;BME280;67273;52.914;-0.982;2023-04-01T02:57:50;99788.88;;;18.65;48.63
53550;BME280;67273;52.914;-0.982;2023-04-01T03:00:17;99791.59;;;18.65;48.65
53550;BME280;67273;52.914;-0.982;2023-04-01T03:02:43;99794.59;;;18.64;48.61
53550;BME280;67273;52.914;-0.982;2023-04-01T03:05:09;99798.13;;;18.64;48.55
53550;BME280;67273;52.914;-0.982;2023-04-01T03:07:35;99798.13;;;18.64;48.52
53550;BME280;67273;52.914;-0.982;2023-04-01T03:10:01;99810.94;;;18.64;48.43
53550;BME280;67273;52.914;-0.982;2023-04-01T03:12:27;99812.81;;;18.63;48.47
53550;BME280;67273;52.914;-0.982;2023-04-01T03:14:54;99813.06;;;18.61;48.52
53550;BME280;67273;52.914;-0.982;2023-04-01T03:17:20;99823.13;;;18.61;48.57
53550;BME280;67273;52.914;-0.982;2023-04-01T03:19:46;99812.50;;;18.59;48.50
53550;BME280;67273;52.914;-0.982;2023-04-01T03:22:11;99816.03;;;18.60;48.49
53550;BME280;67273;52.914;-0.982;2023-04-01T03:24:37;99814.41;;;18.59;48.74
53550;BME280;67273;52.914;-0.982;2023-04-01T03:27:03;99815.22;;;18.59;48.49
53550;BME280;67273;52.914;-0.982;2023-04-01T03:29:31;99829.63;;;18.60;48.37
53550;BME280;67273;52.914;-0.982;2023-04-01T03:32:01;99828.03;;;18.59;48.44
53550;BME280;67273;52.914;-0.982;2023-04-01T03:34:28;99824.50;;;18.58;48.36
53550;BME280;67273;52.914;-0.982;2023-04-01T03:36:54;99833.72;;;18.57;48.40
53550;BME280;67273;52.914;-0.982;2023-04-01T03:39:20;99830.19;;;18.57;48.50
53550;BME280;67273;52.914;-0.982;2023-04-01T03:41:46;99831.00;;;18.57;48.20
53550;BME280;67273;52.914;-0.982;2023-04-01T03:44:12;99832.06;;;18.56;48.37
53550;BME280;67273;52.914;-0.982;2023-04-01T03:46:39;99838.34;;;18.57;48.40
53550;BME280;67273;52.914;-0.982;2023-04-01T03:49:08;99835.88;;;18.55;48.42
53550;BME280;67273;52.914;-0.982;2023-04-01T03:51:37;99841.31;;;18.55;48.45
53550;BME280;67273;52.914;-0.982;2023-04-01T03:54:03;99840.50;;;18.55;48.30
53550;BME280;67273;52.914;-0.982;2023-04-01T03:56:28;99845.09;;;18.54;48.47
53550;BME280;67273;52.914;-0.982;2023-04-01T03:58:54;99850.53;;;18.54;48.27
53550;BME280;67273;52.914;-0.982;2023-04-01T04:01:21;99850.53;;;18.54;48.27
53550;BME280;67273;52.914;-0.982;2023-04-01T04:03:51;99855.19;;;18.54;48.28
53550;BME280;67273;52.914;-0.982;2023-04-01T04:06:19;99868.22;;;18.52;48.42
53550;BME280;67273;52.914;-0.982;2023-04-01T04:08:47;99866.31;;;18.52;48.31
53550;BME280;67273;52.914;-0.982;2023-04-01T04:11:13;99868.22;;;18.52;48.28
53550;BME280;67273;52.914;-0.982;2023-04-01T04:13:41;99867.41;;;18.51;48.41
53550;BME280;67273;52.914;-0.982;2023-04-01T04:16:09;99870.13;;;18.51;48.36
53550;BME280;67273;52.914;-0.982;2023-04-01T04:18:38;99872.00;;;18.51;48.24
53550;BME280;67273;52.914;-0.982;2023-04-01T04:21:04;99875.81;;;18.50;48.33
53550;BME280;67273;52.914;-0.982;2023-04-01T04:23:33;99885.03;;;18.49;48.27
53550;BME280;67273;52.914;-0.982;2023-04-01T04:26:02;99880.41;;;18.49;48.25
53550;BME280;67273;52.914;-0.982;2023-04-01T04:28:31;99887.75;;;18.49;48.31
53550;BME280;67273;52.914;-0.982;2023-04-01T04:30:58;99893.19;;;18.49;48.29
53550;BME280;67273;52.914;-0.982;2023-04-01T04:33:24;99897.03;;;18.48;48.20
53550;BME280;67273;52.914;-0.982;2023-04-01T04:35:51;99892.66;;;18.47;48.25
53550;BME280;67273;52.914;-0.982;2023-04-01T04:38:18;99905.19;;;18.48;48.25
53550;BME280;67273;52.914;-0.982;2023-04-01T04:40:50;99894.56;;;18.46;48.27
53550;BME280;67273;52.914;-0.982;2023-04-01T04:43:20;99900.00;;;18.46;48.25
53550;BME280;67273;52.914;-0.982;2023-04-01T04:45:49;99908.16;;;18.46;48.20
53550;BME280;67273;52.914;-0.982;2023-04-01T04:48:16;99904.59;;;18.46;48.21
53550;BME280;67273;52.914;-0.982;2023-04-01T04:50:47;99909.22;;;18.45;48.20
53550;BME280;67273;52.914;-0.982;2023-04-01T04:53:16;99905.69;;;18.45;48.23
53550;BME280;67273;52.914;-0.982;2023-04-01T04:55:45;99907.59;;;18.44;48.21
53550;BME280;67273;52.914;-0.982;2023-04-01T04:58:24;99911.13;;;18.45;48.25
53550;BME280;67273;52.914;-0.982;2023-04-01T05:00:50;99921.19;;;18.44;48.07
53550;BME280;67273;52.914;-0.982;2023-04-01T05:03:20;99914.09;;;18.43;48.51
53550;BME280;67273;52.914;-0.982;2023-04-01T05:05:50;99917.88;;;18.42;48.24
53550;BME280;67273;52.914;-0.982;2023-04-01T05:08:17;99918.72;;;18.42;48.30
53550;BME280;67273;52.914;-0.982;2023-04-01T05:10:45;99922.50;;;18.41;48.08
53550;BME280;67273;52.914;-0.982;2023-04-01T05:13:14;99922.50;;;18.41;48.11
53550;BME280;67273;52.914;-0.982;2023-04-01T05:15:49;99927.94;;;18.41;48.28
53550;BME280;67273;52.914;-0.982;2023-04-01T05:18:16;99932.56;;;18.41;48.07
53550;BME280;67273;52.914;-0.982;2023-04-01T05:20:46;99936.34;;;18.40;48.07
53550;BME280;67273;52.914;-0.982;2023-04-01T05:23:12;99946.41;;;18.39;48.21
53550;BME280;67273;52.914;-0.982;2023-04-01T05:25:38;99951.88;;;18.39;48.13
53550;BME280;67273;52.914;-0.982;2023-04-01T05:28:04;99962.75;;;18.39;48.14
53550;BME280;67273;52.914;-0.982;2023-04-01T05:30:35;99963.00;;;18.38;48.24
53550;BME280;67273;52.914;-0.982;2023-04-01T05:33:22;99971.97;;;18.38;48.16
53550;BME280;67273;52.914;-0.982;2023-04-01T05:35:48;99977.41;;;18.38;48.24
53550;BME280;67273;52.914;-0.982;2023-04-01T05:38:14;99973.88;;;18.38;48.15
53550;BME280;67273;52.914;-0.982;2023-04-01T05:40:40;99973.06;;;18.37;47.94
53550;BME280;67273;52.914;-0.982;2023-04-01T05:43:06;99975.78;;;18.37;48.12
53550;BME280;67273;52.914;-0.982;2023-04-01T05:45:31;99975.28;;;18.40;47.95
53550;BME280;67273;52.914;-0.982;2023-04-01T05:48:09;99972.66;;;18.51;47.70
53550;BME280;67273;52.914;-0.982;2023-04-01T05:50:40;99968.94;;;18.57;47.66
53550;BME280;67273;52.914;-0.982;2023-04-01T05:53:08;99971.75;;;18.67;47.49
53550;BME280;67273;52.914;-0.982;2023-04-01T05:55:35;99982.47;;;18.79;47.39
53550;BME280;67273;52.914;-0.982;2023-04-01T05:58:01;99988.38;;;18.93;47.16
53550;BME280;67273;52.914;-0.982;2023-04-01T06:00:28;99995.03;;;19.07;46.95
53550;BME280;67273;52.914;-0.982;2023-04-01T06:02:54;99987.53;;;19.19;46.70
53550;BME280;67273;52.914;-0.982;2023-04-01T06:05:22;99995.78;;;19.30;46.51
53550;BME280;67273;52.914;-0.982;2023-04-01T06:07:51;99998.06;;;19.43;46.22
53550;BME280;67273;52.914;-0.982;2023-04-01T06:10:20;100009.03;;;19.53;46.08
53550;BME280;67273;52.914;-0.982;2023-04-01T06:12:58;100003.38;;;19.60;45.96
53550;BME280;67273;52.914;-0.982;2023-04-01T06:15:35;100015.94;;;19.66;45.91
53550;BME280;67273;52.914;-0.982;2023-04-01T06:18:28;100015.16;;;19.71;45.97
53550;BME280;67273;52.914;-0.982;2023-04-01T06:21:08;100028.88;;;19.76;45.88
53550;BME280;67273;52.914;-0.982;2023-04-01T06:23:59;100025.03;;;19.77;45.90
53550;BME280;67273;52.914;-0.982;2023-04-01T06:26:33;100027.25;;;19.80;45.95
53550;BME280;67273;52.914;-0.982;2023-04-01T06:29:26;100038.69;;;19.82;45.90
53550;BME280;67273;52.914;-0.982;2023-04-01T06:32:11;100039.25;;;19.84;45.84
53550;BME280;67273;52.914;-0.982;2023-04-01T06:35:04;100041.97;;;19.84;45.81
53550;BME280;67273;52.914;-0.982;2023-04-01T06:41:00;100046.91;;;19.87;46.09
53550;BME280;67273;52.914;-0.982;2023-04-01T06:43:41;100044.19;;;19.87;45.95
53550;BME280;67273;52.914;-0.982;2023-04-01T06:46:36;100056.75;;;19.88;45.90
53550;BME280;67273;52.914;-0.982;2023-04-01T06:49:33;100048.56;;;19.88;45.81
53550;BME280;67273;52.914;-0.982;2023-04-01T06:52:40;100055.66;;;19.89;45.85
53550;BME280;67273;52.914;-0.982;2023-04-01T06:55:32;100061.09;;;19.89;45.86
53550;BME280;67273;52.914;-0.982;2023-04-01T06:58:30;100069.53;;;19.88;45.87
53550;BME280;67273;52.914;-0.982;2023-04-01T07:01:02;100072.00;;;19.89;45.92
53550;BME280;67273;52.914;-0.982;2023-04-01T07:03:32;100070.38;;;19.88;45.88
53550;BME280;67273;52.914;-0.982;2023-04-01T07:06:03;100067.91;;;19.87;45.99
53550;BME280;67273;52.914;-0.982;2023-04-01T07:08:34;100079.63;;;19.87;45.97
53550;BME280;67273;52.914;-0.982;2023-04-01T07:11:04;100078.81;;;19.87;45.70
53550;BME280;67273;52.914;-0.982;2023-04-01T07:13:53;100084.28;;;19.87;45.85
53550;BME280;67273;52.914;-0.982;2023-04-01T07:16:25;100086.19;;;19.86;45.82
53550;BME280;67273;52.914;-0.982;2023-04-01T07:18:57;100091.63;;;19.86;45.83
53550;BME280;67273;52.914;-0.982;2023-04-01T07:21:40;100104.53;;;19.69;46.85
53550;BME280;67273;52.914;-0.982;2023-04-01T07:24:21;100108.16;;;19.74;47.96
53550;BME280;67273;52.914;-0.982;2023-04-01T07:27:01;100107.41;;;19.79;47.63
53550;BME280;67273;52.914;-0.982;2023-04-01T07:29:31;100113.41;;;19.81;47.50
53550;BME280;67273;52.914;-0.982;2023-04-01T07:32:09;100112.84;;;19.79;47.45
53550;BME280;67273;52.914;-0.982;2023-04-01T07:34:42;100118.28;;;19.79;47.23
53550;BME280;67273;52.914;-0.982;2023-04-01T07:37:15;100118.28;;;19.79;46.86
53550;BME280;67273;52.914;-0.982;2023-04-01T07:39:51;100119.38;;;19.78;47.28
53550;BME280;67273;52.914;-0.982;2023-04-01T07:42:31;100124.81;;;19.78;46.79
53550;BME280;67273;52.914;-0.982;2023-04-01T07:45:07;100126.97;;;19.76;46.79
53550;BME280;67273;52.914;-0.982;2023-04-01T07:47:47;100126.97;;;19.76;46.67
53550;BME280;67273;52.914;-0.982;2023-04-01T07:50:22;100131.63;;;19.75;46.60
53550;BME280;67273;52.914;-0.982;2023-04-01T07:52:59;100140.06;;;19.74;46.72
53550;BME280;67273;52.914;-0.982;2023-04-01T07:55:33;100153.69;;;19.74;46.56
53550;BME280;67273;52.914;-0.982;2023-04-01T07:58:08;100151.19;;;19.72;46.48
53550;BME280;67273;52.914;-0.982;2023-04-01T08:00:47;100156.88;;;19.71;46.31
53550;BME280;67273;52.914;-0.982;2023-04-01T08:03:31;100160.16;;;19.73;46.44
53550;BME280;67273;52.914;-0.982;2023-04-01T08:06:03;100172.97;;;19.72;46.44
53550;BME280;67273;52.914;-0.982;2023-04-01T08:08:41;100174.06;;;19.71;46.43
53550;BME280;67273;52.914;-0.982;2023-04-01T08:11:38;100177.88;;;19.70;46.27
53550;BME280;67273;52.914;-0.982;2023-04-01T08:14:32;100183.59;;;19.69;46.28
53550;BME280;67273;52.914;-0.982;2023-04-01T08:17:26;100184.66;;;19.68;46.32
53550;BME280;67273;52.914;-0.982;2023-04-01T08:20:10;100189.28;;;19.67;46.31
53550;BME280;67273;52.914;-0.982;2023-04-01T08:22:42;100188.47;;;19.67;46.25
53550;BME280;67273;52.914;-0.982;2023-04-01T08:25:21;100197.72;;;19.66;46.27
53550;BME280;67273;52.914;-0.982;2023-04-01T08:27:51;100197.16;;;19.64;46.17
53550;BME280;67273;52.914;-0.982;2023-04-01T08:30:20;100199.06;;;19.63;46.31
53550;BME280;67273;52.914;-0.982;2023-04-01T08:32:53;100207.50;;;19.62;46.22
53550;BME280;67273;52.914;-0.982;2023-04-01T08:35:27;100199.56;;;19.60;46.49
53550;BME280;67273;52.914;-0.982;2023-04-01T08:37:59;100209.53;;;19.49;50.59
53550;BME280;67273;52.914;-0.982;2023-04-01T08:40:39;100209.03;;;19.52;49.98
53550;BME280;67273;52.914;-0.982;2023-04-01T08:43:09;100222.38;;;19.54;49.96
53550;BME280;67273;52.914;-0.982;2023-04-01T08:48:55;100227.00;;;19.53;49.21
53550;BME280;67273;52.914;-0.982;2023-04-01T08:51:48;100228.94;;;19.53;48.86
53550;BME280;67273;52.914;-0.982;2023-04-01T08:54:35;100231.66;;;19.53;48.62
53550;BME280;67273;52.914;-0.982;2023-04-01T08:57:14;100234.63;;;19.51;48.59
53550;BME280;67273;52.914;-0.982;2023-04-01T09:00:15;100231.09;;;19.51;48.42
53550;BME280;67273;52.914;-0.982;2023-04-01T09:03:14;100239.25;;;19.51;48.31
53550;BME280;67273;52.914;-0.982;2023-04-01T09:08:48;100236.78;;;19.49;47.80
53550;BME280;67273;52.914;-0.982;2023-04-01T09:11:27;100237.03;;;19.48;47.63
53550;BME280;67273;52.914;-0.982;2023-04-01T09:14:41;100256.94;;;19.48;47.57
53550;BME280;67273;52.914;-0.982;2023-04-01T09:17:51;100259.09;;;19.46;47.61
53550;BME280;67273;52.914;-0.982;2023-04-01T09:20:42;100262.88;;;19.45;47.58
53550;BME280;67273;52.914;-0.982;2023-04-01T09:23:29;100273.22;;;19.43;47.37
53550;BME280;67273;52.914;-0.982;2023-04-01T09:26:08;100270.88;;;19.30;51.07
53550;BME280;67273;52.914;-0.982;2023-04-01T09:28:44;100281.28;;;19.33;50.03
53550;BME280;67273;52.914;-0.982;2023-04-01T09:31:40;100278.59;;;19.38;49.62
53550;BME280;67273;52.914;-0.982;2023-04-01T09:35:07;100281.31;;;19.38;49.63
53550;BME280;67273;52.914;-0.982;2023-04-01T09:37:53;100282.41;;;19.37;49.05
53550;BME280;67273;52.914;-0.982;2023-04-01T09:40:33;100285.13;;;19.37;48.95
53550;BME280;67273;52.914;-0.982;2023-04-01T09:43:25;100286.19;;;19.36;48.67
53550;BME280;67273;52.914;-0.982;2023-04-01T09:46:20;100294.38;;;19.36;48.56
53550;BME280;67273;52.914;-0.982;2023-04-01T09:52:09;100293.56;;;19.35;48.15
53550;BME280;67273;52.914;-0.982;2023-04-01T10:01:33;100305.78;;;19.33;47.87
53550;BME280;67273;52.914;-0.982;2023-04-01T10:04:35;100307.91;;;19.31;47.73
53550;BME280;67273;52.914;-0.982;2023-04-01T10:07:36;100320.72;;;19.30;47.62
53550;BME280;67273;52.914;-0.982;2023-04-01T10:13:10;100323.13;;;19.27;48.20
53550;BME280;67273;52.914;-0.982;2023-04-01T10:16:09;100335.09;;;19.26;48.09
53550;BME280;67273;52.914;-0.982;2023-04-01T10:19:11;100333.44;;;19.25;48.07
53550;BME280;67273;52.914;-0.982;2023-04-01T10:22:16;100337.25;;;19.24;47.91
53550;BME280;67273;52.914;-0.982;2023-04-01T10:25:11;100348.97;;;19.24;47.88
53550;BME280;67273;52.914;-0.982;2023-04-01T10:31:36;100359.28;;;19.22;47.49
53550;BME280;67273;52.914;-0.982;2023-04-01T10:37:46;100369.59;;;19.20;47.29
53550;BME280;67273;52.914;-0.982;2023-04-01T10:40:55;100374.22;;;19.19;47.37
53550;BME280;67273;52.914;-0.982;2023-04-01T10:53:34;100393.78;;;19.16;47.11
53550;BME280;67273;52.914;-0.982;2023-04-01T10:56:51;100394.88;;;19.15;47.09
53550;BME280;67273;52.914;-0.982;2023-04-01T10:59:45;100398.41;;;19.16;47.08
53550;BME280;67273;52.914;-0.982;2023-04-01T11:03:24;100403.84;;;19.16;46.93
53550;BME280;67273;52.914;-0.982;2023-04-01T11:19:18;100413.38;;;19.13;46.67
53550;BME280;67273;52.914;-0.982;2023-04-01T11:28:24;100437.28;;;19.11;46.43
53550;BME280;67273;52.914;-0.982;2023-04-01T11:31:09;100437.28;;;19.11;46.40
53550;BME280;67273;52.914;-0.982;2023-04-01T11:33:41;100444.63;;;19.11;46.44
53550;BME280;67273;52.914;-0.982;2023-04-01T11:36:19;100445.72;;;19.10;46.46
53550;BME280;67273;52.914;-0.982;2023-04-01T11:39:03;100446.53;;;19.10;46.38
53550;BME280;67273;52.914;-0.982;2023-04-01T11:42:03;100450.31;;;19.09;46.41
53550;BME280;67273;52.914;-0.982;2023-04-01T11:45:12;100458.72;;;19.08;46.45
53550;BME280;67273;52.914;-0.982;2023-04-01T11:48:03;100465.84;;;19.09;46.47
53550;BME280;67273;52.914;-0.982;2023-04-01T11:50:45;100463.09;;;19.09;46.45
53550;BME280;67273;52.914;-0.982;2023-04-01T11:53:21;100465.03;;;19.08;46.47
53550;BME280;67273;52.914;-0.982;2023-04-01T11:55:52;100467.16;;;19.06;46.29
53550;BME280;67273;52.914;-0.982;2023-04-01T11:58:36;100469.03;;;19.06;46.33
53550;BME280;67273;52.914;-0.982;2023-04-01T12:01:33;100476.41;;;19.05;46.49
53550;BME280;67273;52.914;-0.982;2023-04-01T12:04:19;100480.19;;;19.04;46.49
53550;BME280;67273;52.914;-0.982;2023-04-01T12:06:56;100478.53;;;19.03;46.45
53550;BME280;67273;52.914;-0.982;2023-04-01T12:09:36;100494.03;;;19.03;46.43
53550;BME280;67273;52.914;-0.982;2023-04-01T12:12:14;100493.22;;;19.02;46.44
53550;BME280;67273;52.914;-0.982;2023-04-01T12:14:50;100497.03;;;19.01;47.05
53550;BME280;67273;52.914;-0.982;2023-04-01T12:17:27;100500.81;;;19.00;47.03
53550;BME280;67273;52.914;-0.982;2023-04-01T12:20:01;100506.59;;;19.04;47.77
53550;BME280;67273;52.914;-0.982;2023-04-01T12:22:45;100511.22;;;19.03;47.67
53550;BME280;67273;52.914;-0.982;2023-04-01T12:25:26;100513.38;;;19.01;47.59
53550;BME280;67273;52.914;-0.982;2023-04-01T12:28:05;100516.09;;;19.01;47.41
53550;BME280;67273;52.914;-0.982;2023-04-01T12:30:49;100526.38;;;18.99;47.13
53550;BME280;67273;52.914;-0.982;2023-04-01T12:33:37;100523.91;;;18.97;47.14
53550;BME280;67273;52.914;-0.982;2023-04-01T12:36:16;100532.91;;;18.98;46.93
53550;BME280;67273;52.914;-0.982;2023-04-01T12:38:51;100540.25;;;18.97;46.94
53550;BME280;67273;52.914;-0.982;2023-04-01T12:41:28;100546.50;;;18.98;46.87
53550;BME280;67273;52.914;-0.982;2023-04-01T12:44:26;100546.50;;;18.98;46.95
53550;BME280;67273;52.914;-0.982;2023-04-01T12:49:56;100561.44;;;18.95;46.98
53550;BME280;67273;52.914;-0.982;2023-04-01T12:52:36;100550.88;;;18.99;47.31
53550;BME280;67273;52.914;-0.982;2023-04-01T12:55:30;100556.06;;;19.00;48.16
53550;BME280;67273;52.914;-0.982;2023-04-01T13:04:32;100569.94;;;18.99;50.63
53550;BME280;67273;52.914;-0.982;2023-04-01T13:07:24;100582.50;;;19.00;49.90
53550;BME280;67273;52.914;-0.982;2023-04-01T13:10:02;100579.19;;;18.98;49.76
53550;BME280;67273;52.914;-0.982;2023-04-01T13:12:55;100586.78;;;18.96;49.54
53550;BME280;67273;52.914;-0.982;2023-04-01T13:15:26;100587.84;;;18.95;49.22
53550;BME280;67273;52.914;-0.982;2023-04-01T13:17:58;100593.50;;;18.93;49.06
53550;BME280;67273;52.914;-0.982;2023-04-01T13:20:38;100592.47;;;18.94;48.84
53550;BME280;67273;52.914;-0.982;2023-04-01T13:23:13;100592.69;;;18.93;48.64
53550;BME280;67273;52.914;-0.982;2023-04-01T13:25:46;100594.59;;;18.92;48.62
53550;BME280;67273;52.914;-0.982;2023-04-01T13:28:20;100599.81;;;18.94;48.41
53550;BME280;67273;52.914;-0.982;2023-04-01T13:30:54;100592.69;;;18.93;48.43
53550;BME280;67273;52.914;-0.982;2023-04-01T13:33:34;100606.88;;;18.95;48.97
53550;BME280;67273;52.914;-0.982;2023-04-01T13:36:13;100604.41;;;18.93;48.71
53550;BME280;67273;52.914;-0.982;2023-04-01T13:42:12;100616.97;;;18.94;48.38
53550;BME280;67273;52.914;-0.982;2023-04-01T13:44:46;100617.78;;;18.95;48.22
53550;BME280;67273;52.914;-0.982;2023-04-01T13:50:34;100617.31;;;18.98;47.66
53550;BME280;67273;52.914;-0.982;2023-04-01T13:53:33;100619.78;;;18.99;47.89
53550;BME280;67273;52.914;-0.982;2023-04-01T13:56:09;100621.94;;;18.97;47.97
53550;BME280;67273;52.914;-0.982;2023-04-01T13:58:46;100622.19;;;18.84;49.09
53550;BME280;67273;52.914;-0.982;2023-04-01T14:01:18;100634.50;;;18.87;50.97
53550;BME280;67273;52.914;-0.982;2023-04-01T14:06:54;100636.25;;;18.93;49.79
53550;BME280;67273;52.914;-0.982;2023-04-01T14:12:30;100646.31;;;18.92;49.07
53550;BME280;67273;52.914;-0.982;2023-04-01T14:15:15;100645.47;;;18.92;49.04
53550;BME280;67273;52.914;-0.982;2023-04-01T14:18:17;100652.59;;;18.93;49.22
53550;BME280;67273;52.914;-0.982;2023-04-01T14:20:53;100655.31;;;18.93;49.00
53550;BME280;67273;52.914;-0.982;2023-04-01T14:26:53;100669.16;;;18.91;48.70
53550;BME280;67273;52.914;-0.982;2023-04-01T14:29:24;100672.69;;;18.92;48.63
53550;BME280;67273;52.914;-0.982;2023-04-01T14:32:02;100673.78;;;18.91;48.18
53550;BME280;67273;52.914;-0.982;2023-04-01T14:34:44;100671.06;;;18.91;48.08
53550;BME280;67273;52.914;-0.982;2023-04-01T14:37:23;100682.78;;;18.91;48.03
53550;BME280;67273;52.914;-0.982;2023-04-01T14:40:19;100684.69;;;18.91;48.01
53550;BME280;67273;52.914;-0.982;2023-04-01T14:42:59;100685.72;;;18.90;47.86
53550;BME280;67273;52.914;-0.982;2023-04-01T14:45:51;100696.63;;;18.90;47.88
53550;BME280;67273;52.914;-0.982;2023-04-01T14:48:28;100703.97;;;18.89;47.85
53550;BME280;67273;52.914;-0.982;2023-04-01T14:51:02;100701.47;;;18.88;47.65
53550;BME280;67273;52.914;-0.982;2023-04-01T14:53:31;100704.44;;;18.86;47.88
53550;BME280;67273;52.914;-0.982;2023-04-01T14:56:00;100706.34;;;18.86;47.68